sensor_id;sensor_type;location;lat;lon;timestamp;pressure;altitude;pressure_sealevel;temperature;humidity
59545;BME280;45368;55.002;-1.592;2022-11-25T00:01:26;98755.81;;;5.52;68.12
59545;BME280;45368;55.002;-1.592;2022-11-25T00:03:56;98755.32;;;7.17;64.65
59545;BME280;45368;55.002;-1.592;2022-11-25T00:06:25;98763.31;;;6.43;64.03
59545;BME280;45368;55.002;-1.592;2022-11-25T00:08:54;98767.61;;;7.00;63.17
59545;BME280;45368;55.002;-1.592;2022-11-25T00:11:23;98773.57;;;7.42;62.20
59545;BME280;45368;55.002;-1.592;2022-11-25T00:13:51;98776.59;;;6.44;63.54
59545;BME280;45368;55.002;-1.592;2022-11-25T00:16:20;98769.38;;;7.63;60.84
59545;BME280;45368;55.002;-1.592;2022-11-25T00:18:49;98766.42;;;8.18;59.71
59545;BME280;45368;55.002;-1.592;2022-11-25T00:21:18;98771.94;;;7.58;59.76
59545;BME280;45368;55.002;-1.592;2022-11-25T00:23:50;98777.73;;;7.35;60.82
59545;BME280;45368;55.002;-1.592;2022-11-25T00:26:18;98773.00;;;7.70;59.96
59545;BME280;45368;55.002;-1.592;2022-11-25T00:28:46;98773.53;;;7.32;60.72
59545;BME280;45368;55.002;-1.592;2022-11-25T00:31:17;98781.20;;;6.61;62.87
59545;BME280;45368;55.002;-1.592;2022-11-25T00:33:45;98789.57;;;5.66;65.03
59545;BME280;45368;55.002;-1.592;2022-11-25T00:36:15;98793.66;;;5.87;67.47
59545;BME280;45368;55.002;-1.592;2022-11-25T00:38:44;98789.92;;;5.58;67.33
59545;BME280;45368;55.002;-1.592;2022-11-25T00:41:11;98788.52;;;5.01;69.54
59545;BME280;45368;55.002;-1.592;2022-11-25T00:43:39;98781.04;;;4.82;70.68
59545;BME280;45368;55.002;-1.592;2022-11-25T00:46:06;98777.24;;;5.22;69.16
59545;BME280;45368;55.002;-1.592;2022-11-25T00:48:33;98778.42;;;4.95;70.19
59545;BME280;45368;55.002;-1.592;2022-11-25T00:51:01;98782.74;;;5.19;68.64
59545;BME280;45368;55.002;-1.592;2022-11-25T00:53:30;98786.79;;;5.41;69.12
59545;BME280;45368;55.002;-1.592;2022-11-25T00:56:00;98786.51;;;5.38;67.97
59545;BME280;45368;55.002;-1.592;2022-11-25T00:58:28;98788.16;;;5.58;68.61
59545;BME280;45368;55.002;-1.592;2022-11-25T01:00:55;98791.45;;;5.11;68.54
59545;BME280;45368;55.002;-1.592;2022-11-25T01:03:22;98794.95;;;5.55;68.28
59545;BME280;45368;55.002;-1.592;2022-11-25T01:05:49;98799.32;;;5.61;68.61
59545;BME280;45368;55.002;-1.592;2022-11-25T01:08:16;98802.48;;;5.37;68.42
59545;BME280;45368;55.002;-1.592;2022-11-25T01:10:44;98804.15;;;5.71;68.01
59545;BME280;45368;55.002;-1.592;2022-11-25T01:13:11;98806.33;;;5.97;66.91
59545;BME280;45368;55.002;-1.592;2022-11-25T01:15:38;98803.58;;;5.66;67.19
59545;BME280;45368;55.002;-1.592;2022-11-25T01:18:05;98805.94;;;6.09;67.03
59545;BME280;45368;55.002;-1.592;2022-11-25T01:20:32;98805.38;;;6.49;65.04
59545;BME280;45368;55.002;-1.592;2022-11-25T01:22:59;98807.94;;;6.46;65.07
59545;BME280;45368;55.002;-1.592;2022-11-25T01:25:26;98812.90;;;6.77;65.49
59545;BME280;45368;55.002;-1.592;2022-11-25T01:27:54;98815.10;;;6.79;64.80
59545;BME280;45368;55.002;-1.592;2022-11-25T01:30:21;98818.07;;;6.48;65.70
59545;BME280;45368;55.002;-1.592;2022-11-25T01:32:48;98817.76;;;6.87;65.62
59545;BME280;45368;55.002;-1.592;2022-11-25T01:35:15;98824.36;;;6.51;65.75
59545;BME280;45368;55.002;-1.592;2022-11-25T01:37:42;98831.94;;;5.81;67.45
59545;BME280;45368;55.002;-1.592;2022-11-25T01:40:10;98834.02;;;6.37;66.91
59545;BME280;45368;55.002;-1.592;2022-11-25T01:42:42;98841.66;;;6.28;66.75
59545;BME280;45368;55.002;-1.592;2022-11-25T01:45:44;98840.15;;;6.23;68.25
59545;BME280;45368;55.002;-1.592;2022-11-25T01:48:14;98845.92;;;5.12;70.85
59545;BME280;45368;55.002;-1.592;2022-11-25T01:50:43;98845.15;;;6.07;69.40
59545;BME280;45368;55.002;-1.592;2022-11-25T01:53:13;98846.98;;;6.34;69.20
59545;BME280;45368;55.002;-1.592;2022-11-25T01:55:44;98846.25;;;6.02;69.94
59545;BME280;45368;55.002;-1.592;2022-11-25T01:58:17;98843.73;;;6.12;69.74
59545;BME280;45368;55.002;-1.592;2022-11-25T02:00:46;98845.62;;;5.96;69.60
59545;BME280;45368;55.002;-1.592;2022-11-25T02:03:13;98850.48;;;6.18;69.92
59545;BME280;45368;55.002;-1.592;2022-11-25T02:05:47;98855.82;;;5.95;70.02
59545;BME280;45368;55.002;-1.592;2022-11-25T02:08:18;98863.14;;;5.84;70.12
59545;BME280;45368;55.002;-1.592;2022-11-25T02:10:46;98864.19;;;5.95;69.77
59545;BME280;45368;55.002;-1.592;2022-11-25T02:13:13;98871.11;;;6.25;69.31
59545;BME280;45368;55.002;-1.592;2022-11-25T02:15:41;98879.19;;;5.61;70.15
59545;BME280;45368;55.002;-1.592;2022-11-25T02:18:09;98882.50;;;6.02;70.65
59545;BME280;45368;55.002;-1.592;2022-11-25T02:20:38;98888.36;;;6.01;69.71
59545;BME280;45368;55.002;-1.592;2022-11-25T02:23:11;98889.84;;;6.91;67.77
59545;BME280;45368;55.002;-1.592;2022-11-25T02:25:42;98891.31;;;7.75;64.44
59545;BME280;45368;55.002;-1.592;2022-11-25T02:28:13;98903.09;;;7.02;65.74
59545;BME280;45368;55.002;-1.592;2022-11-25T02:30:41;98904.27;;;7.01;66.26
59545;BME280;45368;55.002;-1.592;2022-11-25T02:33:09;98909.67;;;7.12;66.34
59545;BME280;45368;55.002;-1.592;2022-11-25T02:35:38;98916.15;;;6.89;66.69
59545;BME280;45368;55.002;-1.592;2022-11-25T02:38:09;98926.48;;;6.08;68.70
59545;BME280;45368;55.002;-1.592;2022-11-25T02:40:42;98932.08;;;6.06;69.18
59545;BME280;45368;55.002;-1.592;2022-11-25T02:43:10;98934.15;;;6.55;67.48
59545;BME280;45368;55.002;-1.592;2022-11-25T02:45:44;98942.57;;;6.36;68.50
59545;BME280;45368;55.002;-1.592;2022-11-25T02:48:14;98942.77;;;7.01;65.98
59545;BME280;45368;55.002;-1.592;2022-11-25T02:50:41;98946.49;;;7.34;65.25
59545;BME280;45368;55.002;-1.592;2022-11-25T02:53:08;98953.63;;;6.67;67.40
59545;BME280;45368;55.002;-1.592;2022-11-25T02:55:36;98962.60;;;6.50;67.96
59545;BME280;45368;55.002;-1.592;2022-11-25T02:58:03;98971.32;;;5.96;70.03
59545;BME280;45368;55.002;-1.592;2022-11-25T03:00:30;98978.00;;;6.77;67.27
59545;BME280;45368;55.002;-1.592;2022-11-25T03:02:58;98988.29;;;6.31;67.65
59545;BME280;45368;55.002;-1.592;2022-11-25T03:05:26;98986.51;;;6.58;67.73
59545;BME280;45368;55.002;-1.592;2022-11-25T03:07:53;98986.38;;;7.51;64.80
59545;BME280;45368;55.002;-1.592;2022-11-25T03:10:20;98987.56;;;8.06;63.29
59545;BME280;45368;55.002;-1.592;2022-11-25T03:12:47;98986.02;;;8.35;62.65
59545;BME280;45368;55.002;-1.592;2022-11-25T03:15:15;99005.21;;;7.84;62.71
59545;BME280;45368;55.002;-1.592;2022-11-25T03:17:42;99009.39;;;8.10;62.05
59545;BME280;45368;55.002;-1.592;2022-11-25T03:20:10;99011.57;;;8.32;61.05
59545;BME280;45368;55.002;-1.592;2022-11-25T03:22:38;99018.91;;;8.57;60.71
59545;BME280;45368;55.002;-1.592;2022-11-25T03:25:05;99024.62;;;8.45;60.83
59545;BME280;45368;55.002;-1.592;2022-11-25T03:27:34;99036.04;;;8.40;60.61
59545;BME280;45368;55.002;-1.592;2022-11-25T03:30:01;99039.40;;;9.23;59.29
59545;BME280;45368;55.002;-1.592;2022-11-25T03:32:29;99052.96;;;7.90;61.00
59545;BME280;45368;55.002;-1.592;2022-11-25T03:34:57;99054.55;;;8.75;60.08
59545;BME280;45368;55.002;-1.592;2022-11-25T03:37:24;99060.81;;;9.45;58.79
59545;BME280;45368;55.002;-1.592;2022-11-25T03:39:51;99063.02;;;9.67;58.21
59545;BME280;45368;55.002;-1.592;2022-11-25T03:42:18;99066.91;;;9.32;57.89
59545;BME280;45368;55.002;-1.592;2022-11-25T03:44:45;99080.60;;;9.52;57.61
59545;BME280;45368;55.002;-1.592;2022-11-25T03:47:13;99087.36;;;9.57;57.78
59545;BME280;45368;55.002;-1.592;2022-11-25T03:49:40;99088.84;;;9.37;57.90
59545;BME280;45368;55.002;-1.592;2022-11-25T03:52:07;99091.87;;;8.95;58.47
59545;BME280;45368;55.002;-1.592;2022-11-25T03:54:33;99101.20;;;9.25;58.58
59545;BME280;45368;55.002;-1.592;2022-11-25T03:57:00;99108.69;;;9.31;58.69
59545;BME280;45368;55.002;-1.592;2022-11-25T03:59:27;99114.53;;;9.24;58.69
59545;BME280;45368;55.002;-1.592;2022-11-25T04:01:54;99129.77;;;8.33;59.76
59545;BME280;45368;55.002;-1.592;2022-11-25T04:04:21;99139.76;;;8.92;59.30
59545;BME280;45368;55.002;-1.592;2022-11-25T04:06:49;99153.95;;;7.41;61.95
59545;BME280;45368;55.002;-1.592;2022-11-25T04:09:16;99154.59;;;8.14;61.09
59545;BME280;45368;55.002;-1.592;2022-11-25T04:11:43;99169.32;;;7.47;62.47
59545;BME280;45368;55.002;-1.592;2022-11-25T04:14:10;99177.91;;;7.51;63.22
59545;BME280;45368;55.002;-1.592;2022-11-25T04:16:37;99183.70;;;7.48;63.40
59545;BME280;45368;55.002;-1.592;2022-11-25T04:19:04;99192.09;;;7.76;62.80
59545;BME280;45368;55.002;-1.592;2022-11-25T04:21:31;99195.44;;;7.45;63.48
59545;BME280;45368;55.002;-1.592;2022-11-25T04:23:58;99198.63;;;7.58;63.59
59545;BME280;45368;55.002;-1.592;2022-11-25T04:26:25;99207.94;;;7.70;63.37
59545;BME280;45368;55.002;-1.592;2022-11-25T04:28:51;99207.46;;;8.14;61.15
59545;BME280;45368;55.002;-1.592;2022-11-25T04:31:19;99214.05;;;8.03;61.85
59545;BME280;45368;55.002;-1.592;2022-11-25T04:33:46;99221.56;;;8.18;62.29
59545;BME280;45368;55.002;-1.592;2022-11-25T04:36:13;99229.91;;;8.13;62.01
59545;BME280;45368;55.002;-1.592;2022-11-25T04:38:40;99233.97;;;7.15;65.10
59545;BME280;45368;55.002;-1.592;2022-11-25T04:41:07;99235.58;;;7.32;65.07
59545;BME280;45368;55.002;-1.592;2022-11-25T04:43:34;99245.20;;;6.99;65.47
59545;BME280;45368;55.002;-1.592;2022-11-25T04:46:02;99254.68;;;6.65;67.17
59545;BME280;45368;55.002;-1.592;2022-11-25T04:48:30;99255.41;;;6.94;65.58
59545;BME280;45368;55.002;-1.592;2022-11-25T04:50:57;99264.84;;;7.10;65.93
59545;BME280;45368;55.002;-1.592;2022-11-25T04:53:24;99277.60;;;6.84;66.52
59545;BME280;45368;55.002;-1.592;2022-11-25T04:55:52;99283.54;;;7.44;65.28
59545;BME280;45368;55.002;-1.592;2022-11-25T04:58:18;99296.50;;;7.08;66.37
59545;BME280;45368;55.002;-1.592;2022-11-25T05:00:45;99302.37;;;7.33;66.07
59545;BME280;45368;55.002;-1.592;2022-11-25T05:03:12;99306.84;;;6.93;66.71
59545;BME280;45368;55.002;-1.592;2022-11-25T05:05:39;99313.14;;;7.12;66.71
59545;BME280;45368;55.002;-1.592;2022-11-25T05:08:06;99311.72;;;6.63;67.54
59545;BME280;45368;55.002;-1.592;2022-11-25T05:10:33;99312.87;;;7.16;66.67
59545;BME280;45368;55.002;-1.592;2022-11-25T05:13:00;99317.59;;;7.12;66.54
59545;BME280;45368;55.002;-1.592;2022-11-25T05:15:27;99323.90;;;6.89;66.53
59545;BME280;45368;55.002;-1.592;2022-11-25T05:17:53;99330.12;;;6.99;65.58
59545;BME280;45368;55.002;-1.592;2022-11-25T05:20:20;99331.24;;;7.95;64.82
59545;BME280;45368;55.002;-1.592;2022-11-25T05:22:47;99336.04;;;6.94;66.68
59545;BME280;45368;55.002;-1.592;2022-11-25T05:25:15;99338.97;;;7.98;64.58
59545;BME280;45368;55.002;-1.592;2022-11-25T05:27:42;99344.10;;;7.82;64.14
59545;BME280;45368;55.002;-1.592;2022-11-25T05:30:10;99359.62;;;6.65;68.27
59545;BME280;45368;55.002;-1.592;2022-11-25T05:32:38;99364.03;;;6.84;68.37
59545;BME280;45368;55.002;-1.592;2022-11-25T05:35:05;99365.21;;;6.51;68.05
59545;BME280;45368;55.002;-1.592;2022-11-25T05:37:32;99364.48;;;6.58;68.95
59545;BME280;45368;55.002;-1.592;2022-11-25T05:40:00;99373.11;;;6.61;69.26
59545;BME280;45368;55.002;-1.592;2022-11-25T05:42:28;99386.89;;;6.56;70.29
59545;BME280;45368;55.002;-1.592;2022-11-25T05:44:55;99387.97;;;6.21;71.25
59545;BME280;45368;55.002;-1.592;2022-11-25T05:47:23;99395.10;;;6.22;70.23
59545;BME280;45368;55.002;-1.592;2022-11-25T05:49:50;99398.71;;;6.48;70.29
59545;BME280;45368;55.002;-1.592;2022-11-25T05:52:16;99401.62;;;6.15;70.35
59545;BME280;45368;55.002;-1.592;2022-11-25T05:54:44;99402.45;;;6.35;69.64
59545;BME280;45368;55.002;-1.592;2022-11-25T05:57:11;99408.88;;;6.42;69.48
59545;BME280;45368;55.002;-1.592;2022-11-25T05:59:38;99411.84;;;6.44;68.99
59545;BME280;45368;55.002;-1.592;2022-11-25T06:02:05;99415.37;;;6.65;68.00
59545;BME280;45368;55.002;-1.592;2022-11-25T06:04:33;99419.59;;;7.15;65.95
59545;BME280;45368;55.002;-1.592;2022-11-25T06:07:00;99429.02;;;7.15;66.02
59545;BME280;45368;55.002;-1.592;2022-11-25T06:09:27;99430.07;;;7.31;65.51
59545;BME280;45368;55.002;-1.592;2022-11-25T06:11:55;99429.31;;;7.67;64.03
59545;BME280;45368;55.002;-1.592;2022-11-25T06:14:22;99434.38;;;7.84;63.45
59545;BME280;45368;55.002;-1.592;2022-11-25T06:16:49;99442.98;;;6.31;65.20
59545;BME280;45368;55.002;-1.592;2022-11-25T06:19:16;99450.58;;;6.81;65.43
59545;BME280;45368;55.002;-1.592;2022-11-25T06:21:43;99458.61;;;7.07;64.84
59545;BME280;45368;55.002;-1.592;2022-11-25T06:24:10;99462.06;;;7.02;65.10
59545;BME280;45368;55.002;-1.592;2022-11-25T06:26:37;99468.55;;;6.68;65.74
59545;BME280;45368;55.002;-1.592;2022-11-25T06:29:03;99469.88;;;7.03;63.89
59545;BME280;45368;55.002;-1.592;2022-11-25T06:31:31;99473.63;;;7.29;64.58
59545;BME280;45368;55.002;-1.592;2022-11-25T06:33:58;99481.02;;;6.97;64.12
59545;BME280;45368;55.002;-1.592;2022-11-25T06:36:25;99489.54;;;6.44;66.14
59545;BME280;45368;55.002;-1.592;2022-11-25T06:38:53;99489.68;;;6.48;65.93
59545;BME280;45368;55.002;-1.592;2022-11-25T06:41:22;99501.85;;;6.43;66.49
59545;BME280;45368;55.002;-1.592;2022-11-25T06:43:50;99512.64;;;5.84;69.09
59545;BME280;45368;55.002;-1.592;2022-11-25T06:46:18;99513.43;;;5.63;69.74
59545;BME280;45368;55.002;-1.592;2022-11-25T06:48:45;99524.68;;;6.00;69.36
59545;BME280;45368;55.002;-1.592;2022-11-25T06:51:14;99530.41;;;5.66;70.16
59545;BME280;45368;55.002;-1.592;2022-11-25T06:53:41;99535.76;;;5.72;69.82
59545;BME280;45368;55.002;-1.592;2022-11-25T06:56:11;99543.89;;;5.75;68.96
59545;BME280;45368;55.002;-1.592;2022-11-25T06:58:40;99551.49;;;5.42;69.42
59545;BME280;45368;55.002;-1.592;2022-11-25T07:01:12;99555.03;;;6.09;68.05
59545;BME280;45368;55.002;-1.592;2022-11-25T07:03:40;99563.31;;;6.06;68.15
59545;BME280;45368;55.002;-1.592;2022-11-25T07:06:08;99569.83;;;5.52;68.68
59545;BME280;45368;55.002;-1.592;2022-11-25T07:08:36;99575.11;;;5.96;67.95
59545;BME280;45368;55.002;-1.592;2022-11-25T07:11:05;99587.64;;;5.56;68.65
59545;BME280;45368;55.002;-1.592;2022-11-25T07:13:33;99595.32;;;5.90;67.63
59545;BME280;45368;55.002;-1.592;2022-11-25T07:16:02;99607.46;;;5.98;68.10
59545;BME280;45368;55.002;-1.592;2022-11-25T07:18:31;99619.75;;;6.40;66.46
59545;BME280;45368;55.002;-1.592;2022-11-25T07:21:02;99634.06;;;6.36;66.29
59545;BME280;45368;55.002;-1.592;2022-11-25T07:23:29;99652.30;;;5.97;68.17
59545;BME280;45368;55.002;-1.592;2022-11-25T07:26:01;99657.44;;;6.60;66.65
59545;BME280;45368;55.002;-1.592;2022-11-25T07:28:28;99666.46;;;5.90;67.00
59545;BME280;45368;55.002;-1.592;2022-11-25T07:30:55;99667.90;;;6.20;66.12
59545;BME280;45368;55.002;-1.592;2022-11-25T07:33:22;99673.35;;;6.87;64.47
59545;BME280;45368;55.002;-1.592;2022-11-25T07:35:49;99673.47;;;6.95;63.32
59545;BME280;45368;55.002;-1.592;2022-11-25T07:38:15;99684.36;;;7.36;62.87
59545;BME280;45368;55.002;-1.592;2022-11-25T07:40:42;99690.64;;;7.65;60.74
59545;BME280;45368;55.002;-1.592;2022-11-25T07:43:09;99690.50;;;8.26;59.67
59545;BME280;45368;55.002;-1.592;2022-11-25T07:45:36;99700.89;;;7.39;60.00
59545;BME280;45368;55.002;-1.592;2022-11-25T07:48:04;99702.33;;;8.08;59.40
59545;BME280;45368;55.002;-1.592;2022-11-25T07:50:32;99710.91;;;7.97;58.92
59545;BME280;45368;55.002;-1.592;2022-11-25T07:52:59;99716.19;;;7.35;60.51
59545;BME280;45368;55.002;-1.592;2022-11-25T07:55:27;99726.34;;;8.14;59.00
59545;BME280;45368;55.002;-1.592;2022-11-25T07:57:55;99733.00;;;7.30;60.13
59545;BME280;45368;55.002;-1.592;2022-11-25T08:00:22;99740.46;;;6.72;62.34
59545;BME280;45368;55.002;-1.592;2022-11-25T08:02:49;99750.06;;;6.44;61.83
59545;BME280;45368;55.002;-1.592;2022-11-25T08:05:16;99757.53;;;6.88;61.88
59545;BME280;45368;55.002;-1.592;2022-11-25T08:07:43;99772.26;;;7.20;61.07
59545;BME280;45368;55.002;-1.592;2022-11-25T08:10:10;99778.84;;;7.22;61.03
59545;BME280;45368;55.002;-1.592;2022-11-25T08:12:37;99783.98;;;7.37;60.49
59545;BME280;45368;55.002;-1.592;2022-11-25T08:15:05;99777.20;;;6.97;60.93
59545;BME280;45368;55.002;-1.592;2022-11-25T08:17:33;99786.11;;;7.01;61.30
59545;BME280;45368;55.002;-1.592;2022-11-25T08:20:00;99786.96;;;7.30;60.37
59545;BME280;45368;55.002;-1.592;2022-11-25T08:22:27;99792.88;;;6.76;61.71
59545;BME280;45368;55.002;-1.592;2022-11-25T08:24:54;99795.76;;;6.76;61.30
59545;BME280;45368;55.002;-1.592;2022-11-25T08:27:21;99796.99;;;6.93;61.28
59545;BME280;45368;55.002;-1.592;2022-11-25T08:29:48;99804.06;;;7.01;60.98
59545;BME280;45368;55.002;-1.592;2022-11-25T08:32:15;99799.85;;;7.12;59.87
59545;BME280;45368;55.002;-1.592;2022-11-25T08:34:42;99800.39;;;6.41;61.73
59545;BME280;45368;55.002;-1.592;2022-11-25T08:37:09;99804.28;;;5.91;63.11
59545;BME280;45368;55.002;-1.592;2022-11-25T08:39:36;99802.85;;;6.05;63.11
59545;BME280;45368;55.002;-1.592;2022-11-25T08:42:03;99810.18;;;6.51;62.06
59545;BME280;45368;55.002;-1.592;2022-11-25T08:44:31;99821.18;;;6.72;61.11
59545;BME280;45368;55.002;-1.592;2022-11-25T08:46:58;99833.54;;;7.01;60.70
59545;BME280;45368;55.002;-1.592;2022-11-25T08:49:26;99842.83;;;7.09;60.30
59545;BME280;45368;55.002;-1.592;2022-11-25T08:51:53;99845.65;;;7.11;59.83
59545;BME280;45368;55.002;-1.592;2022-11-25T08:54:20;99858.40;;;7.43;58.61
59545;BME280;45368;55.002;-1.592;2022-11-25T08:56:47;99867.13;;;8.18;57.93
59545;BME280;45368;55.002;-1.592;2022-11-25T08:59:14;99874.75;;;6.90;59.33
59545;BME280;45368;55.002;-1.592;2022-11-25T09:01:41;99878.47;;;7.46;58.40
59545;BME280;45368;55.002;-1.592;2022-11-25T09:04:08;99881.85;;;7.07;58.71
59545;BME280;45368;55.002;-1.592;2022-11-25T09:06:35;99876.22;;;7.52;58.26
59545;BME280;45368;55.002;-1.592;2022-11-25T09:09:04;99878.48;;;7.12;58.36
59545;BME280;45368;55.002;-1.592;2022-11-25T09:11:32;99880.77;;;7.17;58.44
59545;BME280;45368;55.002;-1.592;2022-11-25T09:14:00;99885.18;;;7.49;58.56
59545;BME280;45368;55.002;-1.592;2022-11-25T09:16:27;99887.88;;;7.03;59.27
59545;BME280;45368;55.002;-1.592;2022-11-25T09:18:53;99896.47;;;7.24;59.45
59545;BME280;45368;55.002;-1.592;2022-11-25T09:21:21;99895.18;;;7.14;58.54
59545;BME280;45368;55.002;-1.592;2022-11-25T09:23:49;99893.73;;;6.71;60.19
59545;BME280;45368;55.002;-1.592;2022-11-25T09:26:20;99895.02;;;6.55;60.78
59545;BME280;45368;55.002;-1.592;2022-11-25T09:28:48;99904.54;;;6.30;61.99
59545;BME280;45368;55.002;-1.592;2022-11-25T09:31:15;99909.84;;;7.14;59.71
59545;BME280;45368;55.002;-1.592;2022-11-25T09:33:43;99914.32;;;7.20;59.27
59545;BME280;45368;55.002;-1.592;2022-11-25T09:36:12;99916.78;;;6.45;60.74
59545;BME280;45368;55.002;-1.592;2022-11-25T09:38:40;99920.06;;;7.09;60.24
59545;BME280;45368;55.002;-1.592;2022-11-25T09:41:17;99926.44;;;7.05;57.75
59545;BME280;45368;55.002;-1.592;2022-11-25T09:43:54;99927.19;;;7.57;57.49
59545;BME280;45368;55.002;-1.592;2022-11-25T09:46:38;99933.72;;;8.01;56.56
59545;BME280;45368;55.002;-1.592;2022-11-25T09:49:23;99938.19;;;7.21;57.89
59545;BME280;45368;55.002;-1.592;2022-11-25T09:52:00;99934.17;;;7.55;57.19
59545;BME280;45368;55.002;-1.592;2022-11-25T09:54:34;99945.92;;;7.06;58.78
59545;BME280;45368;55.002;-1.592;2022-11-25T09:57:17;99946.00;;;7.12;58.93
59545;BME280;45368;55.002;-1.592;2022-11-25T09:59:53;99952.96;;;6.95;59.21
59545;BME280;45368;55.002;-1.592;2022-11-25T10:02:28;99952.62;;;7.45;58.96
59545;BME280;45368;55.002;-1.592;2022-11-25T10:05:04;99955.25;;;7.25;58.80
59545;BME280;45368;55.002;-1.592;2022-11-25T10:07:37;99952.47;;;7.53;58.70
59545;BME280;45368;55.002;-1.592;2022-11-25T10:10:13;99951.92;;;6.80;59.26
59545;BME280;45368;55.002;-1.592;2022-11-25T10:12:44;99952.22;;;7.04;60.55
59545;BME280;45368;55.002;-1.592;2022-11-25T10:15:17;99956.01;;;7.40;59.09
59545;BME280;45368;55.002;-1.592;2022-11-25T10:17:48;99958.50;;;7.98;56.85
59545;BME280;45368;55.002;-1.592;2022-11-25T10:20:20;99964.71;;;8.69;55.73
59545;BME280;45368;55.002;-1.592;2022-11-25T10:22:50;99972.18;;;8.29;56.61
59545;BME280;45368;55.002;-1.592;2022-11-25T10:25:21;99971.16;;;7.89;58.22
59545;BME280;45368;55.002;-1.592;2022-11-25T10:27:54;99972.90;;;7.88;58.53
59545;BME280;45368;55.002;-1.592;2022-11-25T10:30:23;99971.33;;;8.01;57.97
59545;BME280;45368;55.002;-1.592;2022-11-25T10:32:54;99972.51;;;8.46;57.70
59545;BME280;45368;55.002;-1.592;2022-11-25T10:35:30;99967.28;;;9.14;55.64
59545;BME280;45368;55.002;-1.592;2022-11-25T10:38:01;99969.59;;;8.34;57.00
59545;BME280;45368;55.002;-1.592;2022-11-25T10:40:29;99966.04;;;8.50;55.85
59545;BME280;45368;55.002;-1.592;2022-11-25T10:42:56;99963.43;;;8.11;58.07
59545;BME280;45368;55.002;-1.592;2022-11-25T10:45:30;99964.36;;;8.83;56.66
59545;BME280;45368;55.002;-1.592;2022-11-25T10:48:13;99970.10;;;8.82;55.44
59545;BME280;45368;55.002;-1.592;2022-11-25T10:51:02;99974.13;;;9.63;55.12
59545;BME280;45368;55.002;-1.592;2022-11-25T10:53:37;99981.22;;;8.85;55.71
59545;BME280;45368;55.002;-1.592;2022-11-25T10:56:09;99980.27;;;9.19;55.76
59545;BME280;45368;55.002;-1.592;2022-11-25T10:58:39;99983.32;;;10.01;54.98
59545;BME280;45368;55.002;-1.592;2022-11-25T11:01:13;99984.25;;;9.77;53.81
59545;BME280;45368;55.002;-1.592;2022-11-25T11:03:43;99983.48;;;10.07;54.51
59545;BME280;45368;55.002;-1.592;2022-11-25T11:06:29;99980.10;;;10.97;52.33
59545;BME280;45368;55.002;-1.592;2022-11-25T11:08:57;99992.30;;;10.91;50.53
59545;BME280;45368;55.002;-1.592;2022-11-25T11:11:25;99994.72;;;11.30;51.60
59545;BME280;45368;55.002;-1.592;2022-11-25T11:13:59;99995.77;;;11.68;50.68
59545;BME280;45368;55.002;-1.592;2022-11-25T11:16:38;100000.63;;;12.98;48.63
59545;BME280;45368;55.002;-1.592;2022-11-25T11:19:20;100004.63;;;12.61;48.68
59545;BME280;45368;55.002;-1.592;2022-11-25T11:21:50;100002.94;;;14.21;45.08
59545;BME280;45368;55.002;-1.592;2022-11-25T11:24:25;100005.16;;;13.76;43.01
59545;BME280;45368;55.002;-1.592;2022-11-25T11:27:02;100001.48;;;11.97;46.17
59545;BME280;45368;55.002;-1.592;2022-11-25T11:29:30;100010.66;;;12.02;46.74
59545;BME280;45368;55.002;-1.592;2022-11-25T11:31:59;100013.41;;;11.92;46.45
59545;BME280;45368;55.002;-1.592;2022-11-25T11:34:41;100013.11;;;11.41;47.38
59545;BME280;45368;55.002;-1.592;2022-11-25T11:37:27;100017.44;;;10.69;49.22
59545;BME280;45368;55.002;-1.592;2022-11-25T11:40:18;100022.91;;;10.69;50.01
59545;BME280;45368;55.002;-1.592;2022-11-25T11:42:58;100035.49;;;9.24;53.09
59545;BME280;45368;55.002;-1.592;2022-11-25T11:45:39;100028.82;;;8.91;54.19
59545;BME280;45368;55.002;-1.592;2022-11-25T11:48:20;100038.04;;;8.92;54.61
59545;BME280;45368;55.002;-1.592;2022-11-25T11:50:54;100032.84;;;9.58;52.66
59545;BME280;45368;55.002;-1.592;2022-11-25T11:53:30;100035.65;;;9.69;52.49
59545;BME280;45368;55.002;-1.592;2022-11-25T11:56:06;100040.67;;;9.36;53.34
59545;BME280;45368;55.002;-1.592;2022-11-25T11:58:46;100045.98;;;9.31;54.03
59545;BME280;45368;55.002;-1.592;2022-11-25T12:01:26;100039.69;;;9.95;52.16
59545;BME280;45368;55.002;-1.592;2022-11-25T12:03:59;100046.87;;;10.27;51.71
59545;BME280;45368;55.002;-1.592;2022-11-25T12:06:33;100042.23;;;10.11;52.23
59545;BME280;45368;55.002;-1.592;2022-11-25T12:09:03;100040.73;;;9.58;53.34
59545;BME280;45368;55.002;-1.592;2022-11-25T12:11:37;100037.36;;;10.12;52.66
59545;BME280;45368;55.002;-1.592;2022-11-25T12:14:13;100048.27;;;9.35;54.22
59545;BME280;45368;55.002;-1.592;2022-11-25T12:16:47;100055.33;;;8.89;54.58
59545;BME280;45368;55.002;-1.592;2022-11-25T12:19:20;100051.59;;;8.81;54.84
59545;BME280;45368;55.002;-1.592;2022-11-25T12:21:55;100054.54;;;9.09;54.53
59545;BME280;45368;55.002;-1.592;2022-11-25T12:24:30;100052.66;;;9.28;54.67
59545;BME280;45368;55.002;-1.592;2022-11-25T12:27:07;100067.05;;;9.37;54.55
59545;BME280;45368;55.002;-1.592;2022-11-25T12:29:40;100068.77;;;9.14;55.16
59545;BME280;45368;55.002;-1.592;2022-11-25T12:32:34;100073.44;;;9.15;55.93
59545;BME280;45368;55.002;-1.592;2022-11-25T12:35:17;100081.01;;;8.97;55.85
59545;BME280;45368;55.002;-1.592;2022-11-25T12:37:51;100083.22;;;9.15;55.70
59545;BME280;45368;55.002;-1.592;2022-11-25T12:40:26;100087.75;;;8.69;57.31
59545;BME280;45368;55.002;-1.592;2022-11-25T12:43:08;100098.58;;;8.91;56.86
59545;BME280;45368;55.002;-1.592;2022-11-25T12:45:40;100102.76;;;9.08;56.95
59545;BME280;45368;55.002;-1.592;2022-11-25T12:48:10;100107.63;;;9.51;56.05
59545;BME280;45368;55.002;-1.592;2022-11-25T12:50:49;100113.98;;;9.52;55.10
59545;BME280;45368;55.002;-1.592;2022-11-25T12:53:27;100112.95;;;9.14;56.14
59545;BME280;45368;55.002;-1.592;2022-11-25T12:56:01;100118.22;;;8.82;56.51
59545;BME280;45368;55.002;-1.592;2022-11-25T12:58:43;100112.08;;;9.26;55.69
59545;BME280;45368;55.002;-1.592;2022-11-25T13:01:31;100123.34;;;9.05;55.00
59545;BME280;45368;55.002;-1.592;2022-11-25T13:04:27;100132.45;;;9.09;57.09
59545;BME280;45368;55.002;-1.592;2022-11-25T13:07:32;100124.77;;;9.28;55.08
59545;BME280;45368;55.002;-1.592;2022-11-25T13:10:35;100127.72;;;9.48;54.90
59545;BME280;45368;55.002;-1.592;2022-11-25T13:13:22;100131.61;;;9.61;54.92